createdAt,value
2016-04-29T00:00:14.642Z,1011.67
2016-04-29T00:01:14.598Z,1011.68
2016-04-29T00:02:14.555Z,1011.69
2016-04-29T00:03:14.494Z,1011.66
2016-04-29T00:04:14.450Z,1011.65
2016-04-29T00:05:14.406Z,1011.63
2016-04-29T00:06:14.361Z,1011.63
2016-04-29T00:07:14.302Z,1011.64
2016-04-29T00:08:14.257Z,1011.65
2016-04-29T00:09:14.198Z,1011.64
2016-04-29T00:10:14.154Z,1011.67
2016-04-29T00:11:14.110Z,1011.64
2016-04-29T00:12:14.253Z,1011.66
2016-04-29T00:13:14.004Z,1011.63
2016-04-29T00:14:13.976Z,1011.67
2016-04-29T00:15:13.972Z,1011.66
2016-04-29T00:16:13.998Z,1011.67
2016-04-29T00:17:13.947Z,1011.68
2016-04-29T00:18:13.942Z,1011.69
2016-04-29T00:19:13.930Z,1011.66
2016-04-29T00:20:13.900Z,1011.68
2016-04-29T00:21:13.853Z,1011.69
2016-04-29T00:22:13.824Z,1011.69
2016-04-29T00:23:13.793Z,1011.7
2016-04-29T00:24:13.761Z,1011.69
2016-04-29T00:25:13.706Z,1011.69
2016-04-29T00:26:13.666Z,1011.65
2016-04-29T00:27:16.627Z,1011.65
2016-04-29T00:28:13.587Z,1011.65
2016-04-29T00:29:13.735Z,1011.65
2016-04-29T00:30:15.537Z,1011.65
2016-04-29T00:31:13.447Z,1011.67
2016-04-29T00:32:13.390Z,1011.64
2016-04-29T00:33:13.362Z,1011.6
2016-04-29T00:34:13.305Z,1011.64
2016-04-29T00:35:13.261Z,1011.6
2016-04-29T00:36:13.203Z,1011.6
2016-04-29T00:37:13.159Z,1011.6
2016-04-29T00:38:13.115Z,1011.59
2016-04-29T00:39:13.072Z,1011.6
2016-04-29T00:40:13.013Z,1011.57
2016-04-29T00:41:12.969Z,1011.58
2016-04-29T00:42:12.925Z,1011.59
2016-04-29T00:43:12.881Z,1011.58
2016-04-29T18:19:12.672Z,1012.51
2016-04-29T18:20:12.612Z,1012.54
2016-04-29T18:21:12.569Z,1012.49
2016-04-29T18:22:12.510Z,1012.44
2016-04-29T18:23:12.466Z,1012.42
2016-04-29T18:24:12.421Z,1012.37
2016-04-29T18:25:12.377Z,1012.28
2016-04-29T22:35:29.246Z,1012.42
2016-04-29T22:36:29.201Z,1012.43
2016-04-29T22:37:29.158Z,1012.41
2016-04-29T22:38:32.114Z,1012.39
2016-04-29T22:39:29.039Z,1012.4
2016-04-29T22:40:29.010Z,1012.37
2016-04-29T22:41:28.951Z,1012.41
2016-04-29T22:42:28.890Z,1012.39
2016-04-29T22:43:29.049Z,1012.38
2016-04-29T22:44:28.802Z,1012.42
2016-04-29T22:45:28.757Z,1012.4
2016-04-29T22:46:28.697Z,1012.41
2016-04-29T22:47:28.654Z,1012.42
2016-04-29T22:48:28.609Z,1012.42
2016-04-29T22:49:28.565Z,1012.46
2016-04-29T22:50:28.521Z,1012.44
2016-04-29T22:51:28.461Z,1012.46
2016-04-29T22:52:28.416Z,1012.42
2016-04-29T22:53:28.372Z,1012.45
2016-04-29T22:54:28.330Z,1012.46
2016-04-29T22:55:28.269Z,1012.49
2016-04-29T22:56:28.224Z,1012.49
2016-04-29T22:57:28.181Z,1012.49
2016-04-29T22:58:28.136Z,1012.49
2016-04-29T22:59:28.093Z,1012.51
2016-04-29T23:00:28.033Z,1012.45
2016-04-29T23:01:27.988Z,1012.48
2016-04-29T23:02:27.943Z,1012.49
2016-04-29T23:03:27.884Z,1012.52
2016-04-29T23:04:27.840Z,1012.49
2016-04-29T23:05:27.796Z,1012.53
2016-04-29T23:06:27.737Z,1012.55
2016-04-29T23:07:27.692Z,1012.51
2016-04-29T23:08:27.647Z,1012.47
2016-04-29T23:09:27.604Z,1012.5
2016-04-29T23:10:27.560Z,1012.54
2016-04-29T23:11:27.500Z,1012.49
2016-04-29T23:12:27.471Z,1012.49
2016-04-29T23:13:27.412Z,1012.55
2016-04-29T23:14:27.367Z,1012.53
2016-04-29T23:15:27.307Z,1012.54
2016-04-29T23:16:27.264Z,1012.54
2016-04-29T23:17:27.219Z,1012.59
2016-04-29T23:18:27.675Z,1012.57
2016-04-29T23:19:27.130Z,1012.58
2016-04-29T23:20:27.070Z,1012.6
2016-04-29T23:21:27.027Z,1012.55
2016-04-29T23:22:26.982Z,1012.58
2016-04-29T23:23:26.939Z,1012.55
2016-04-29T23:24:26.894Z,1012.59
2016-04-29T23:25:27.037Z,1012.57
2016-04-29T23:26:26.790Z,1012.59
2016-04-29T23:27:26.730Z,1012.61
2016-04-29T23:28:26.686Z,1012.63
2016-04-29T23:29:26.642Z,1012.6
2016-04-29T23:30:26.582Z,1012.64
2016-04-29T23:31:26.538Z,1012.6
2016-04-29T23:32:26.494Z,1012.62
2016-04-29T23:33:27.449Z,1012.65
2016-04-29T23:34:26.390Z,1012.6
2016-04-29T23:35:26.346Z,1012.63
2016-04-29T23:36:26.301Z,1012.66
2016-04-29T23:37:26.257Z,1012.66
2016-04-29T23:38:26.212Z,1012.65
2016-04-29T23:39:26.153Z,1012.73
2016-04-29T23:40:26.109Z,1012.73
2016-04-29T23:41:26.064Z,1012.71
2016-04-29T23:42:26.004Z,1012.7
2016-04-29T23:43:25.976Z,1012.71
2016-04-29T23:44:25.917Z,1012.73
2016-04-29T23:45:25.872Z,1012.74
2016-04-29T23:46:25.844Z,1012.73
2016-04-29T23:47:25.784Z,1012.73
2016-04-29T23:48:25.834Z,1012.75
2016-04-29T23:49:25.681Z,1012.72
2016-04-29T23:50:25.636Z,1012.74
2016-04-29T23:51:25.576Z,1012.75
2016-04-29T23:52:25.531Z,1012.73
2016-04-29T23:53:25.488Z,1012.73
2016-04-29T23:54:25.428Z,1012.74
2016-04-29T23:55:25.383Z,1012.73
2016-04-29T23:56:25.339Z,1012.71
2016-04-29T23:57:25.294Z,1012.7
2016-04-29T23:58:25.251Z,1012.7
2016-04-29T23:59:25.191Z,1012.68
